createdAt,value
2023-04-28T00:26:39.420Z,21.68
2023-04-28T00:55:41.150Z,21.64
2023-04-28T01:24:45.301Z,21.6
2023-04-28T01:53:44.396Z,21.58
2023-04-28T02:22:46.628Z,21.53
2023-04-28T02:51:45.612Z,21.5
2023-04-28T03:20:48.009Z,21.47
2023-04-28T03:49:43.364Z,21.44
2023-04-28T04:18:40.113Z,21.41
2023-04-28T04:47:33.532Z,21.4
2023-04-28T05:16:27.047Z,21.47
2023-04-28T05:45:08.244Z,21.57
2023-04-28T06:13:49.376Z,21.71
2023-04-28T06:42:21.298Z,21.69
2023-04-28T07:10:54.321Z,21.79
2023-04-28T07:39:35.859Z,21.98
2023-04-28T08:08:06.650Z,22.04
2023-04-28T08:36:40.250Z,21.96
2023-04-28T09:05:22.402Z,21.91
2023-04-28T09:33:52.299Z,21.86
2023-04-28T10:30:48.067Z,21.82
2023-04-28T10:59:19.681Z,21.89
2023-04-28T11:27:59.782Z,21.87
2023-04-28T11:56:34.072Z,21.83
2023-04-28T12:25:19.915Z,21.8
2023-04-28T12:53:50.296Z,21.77
2023-04-28T13:22:27.161Z,21.75
2023-04-28T13:51:14.334Z,21.71
2023-04-28T14:19:53.288Z,21.69
2023-04-28T14:48:30.208Z,21.78
2023-04-28T15:17:15.657Z,21.87
2023-04-28T15:45:41.719Z,21.92
2023-04-28T16:14:12.252Z,21.89
2023-04-28T16:42:52.239Z,21.85
2023-04-28T17:11:30.729Z,21.82
2023-04-28T17:40:19.110Z,21.79
2023-04-28T18:08:59.152Z,21.77
2023-04-28T18:37:40.726Z,21.73
2023-04-28T19:06:08.863Z,21.71
2023-04-28T19:34:41.623Z,21.7
2023-04-28T20:03:25.942Z,21.67
2023-04-28T20:31:57.830Z,21.65
2023-04-28T21:00:41.450Z,21.65
2023-04-28T21:29:19.991Z,21.62
2023-04-28T21:58:01.648Z,21.58
2023-04-28T22:26:48.862Z,21.56
2023-04-28T22:55:53.373Z,21.54
2023-04-28T23:24:50.126Z,21.52
2023-04-28T23:53:55.190Z,21.5
